Flight Track Log - Related Links

Times and Time Zones

All times are in EDT time to prevent confusion due to time zone crossing. See the EGF4123 flight status page for this flight to view local times or setup timezone preferences in your user account.


Time Position Orientation Groundspeed Altitude Reporting Facility
EDT Latitude Longitude Course Direction KTS MPH feet Rate Location/Type
Tue 09:58:21 PM 41.9000 -87.9000 189° South 201 231 3,600  Level Chicago TRACON
Tue 09:58:56 PM 41.8733 -87.9042 187° South 222 255 4,600 2,250 Climbing Chicago Center
Tue 09:59:57 PM 41.7964 -87.9267 192° South 275 316 7,200 2,683 Climbing Chicago Center
Tue 10:00:00 PM 41.7037 -87.9611 192° South  Level Estimated
Tue 10:00:59 PM 41.7203 -87.9461 191° South 282 325 10,100  Level Chicago Center
Tue 10:01:00 PM 41.6110 -87.9782 188° South  Level FlightAware Approximate
Tue 10:02:00 PM 41.6372 -87.9689 192° South 304 350 12,000  Level Chicago Center
Tue 10:02:00 PM 41.5183 -87.9963 189° South  Level Estimated
Tue 10:03:00 PM 41.4445 -88.0111 189° South  Level FlightAware Approximate
Tue 10:03:02 PM 41.5444 -87.9939 191° South 336 387 13,600  Level Chicago Center
Tue 10:04:03 PM 41.4456 -88.0214 192° South 359 413 14,700 1,073 Climbing Chicago Center
Tue 10:05:05 PM 41.3256 -88.0553 192° South 386 444 15,800 1,073 Climbing Chicago Center
Tue 10:06:06 PM 41.2111 -88.0753 187° South 410 472 16,900 492 Climbing Chicago Center
Tue 10:07:07 PM 41.0956 -88.0947 187° South 419 482 16,800 -1,122 Descending Chicago Center
Tue 10:08:09 PM 40.9592 -88.1175 187° South 415 478 14,600 -2,049 Descending Chicago Center
Tue 10:09:10 PM 40.8486 -88.1372 188° South 407 468 12,600 -1,512 Descending Chicago Center
Tue 10:10:12 PM 40.7400 -88.1564 188° South 399 459 11,500 -780 Descending Chicago Center
Tue 10:11:13 PM 40.6314 -88.1750 187° South 396 456 11,000 -246 Descending Chicago Center
Tue 10:12:14 PM 40.5222 -88.1942 188° South 397 457 11,000 -98 Level Chicago Center
Tue 10:13:16 PM 40.4178 -88.2122 187° South 385 443 10,800 -829 Descending Chicago Center
Tue 10:14:17 PM 40.3294 -88.2292 188° South 335 386 9,300 -2,195 Descending Chicago Center
Tue 10:15:19 PM 40.2433 -88.2697 200° South 285 328 6,300 -2,903 Descending Chicago Center

Login

Don't have an account? Register now (free) for customized features, flight alerts, and more!